Time;durP1;ratioP1;P1;durP2;ratioP2;P2;SDS_P1;SDS_P2;PMS_P1;PMS_P2;Temp;Humidity;BMP_temperature;BMP_pressure;BME280_temperature;BME280_humidity;BME280_pressure;Samples;Min_cycle;Max_cycle;Signal;HPM_P1;HPM_P2
2022/04/02 00:01:22;;;;;;;8.23;5.85;;;;;;;6.32;100.00;97086.92;1724296;82;20954;-69
2022/04/02 00:03:49;;;;;;;7.45;6.17;;;;;;;6.29;100.00;97085.69;1745468;82;22023;-70
2022/04/02 00:06:16;;;;;;;9.33;6.47;;;;;;;6.26;100.00;97088.31;1726731;82;20891;-70
2022/04/02 00:08:43;;;;;;;8.33;5.45;;;;;;;6.23;100.00;97080.27;1720755;82;20934;-71
2022/04/02 00:11:10;;;;;;;6.30;5.37;;;;;;;6.26;100.00;97070.60;1717449;82;21484;-67
2022/04/02 00:13:38;;;;;;;6.33;5.08;;;;;;;6.29;100.00;97074.00;1722141;82;21053;-68
2022/04/02 00:16:05;;;;;;;7.78;5.58;;;;;;;6.29;100.00;97063.89;1723602;82;21540;-68
2022/04/02 00:18:33;;;;;;;6.28;4.97;;;;;;;6.29;100.00;97069.34;1728401;81;21016;-68
2022/04/02 00:20:59;;;;;;;7.00;5.17;;;;;;;6.27;100.00;97072.19;1722550;81;20981;-68
2022/04/02 00:23:35;;;;;;;6.33;4.80;;;;;;;6.25;100.00;97074.47;1724722;82;21418;-67
2022/04/02 00:26:16;;;;;;;6.45;4.90;;;;;;;6.24;100.00;97070.95;1715321;82;20963;-68
2022/04/02 00:28:51;;;;;;;6.70;5.00;;;;;;;6.27;100.00;97069.46;1731936;82;21981;-67
2022/04/02 00:31:19;;;;;;;6.60;4.87;;;;;;;6.31;100.00;97066.27;1698751;82;20946;-68
2022/04/02 00:33:47;;;;;;;5.95;4.58;;;;;;;6.31;100.00;97070.92;1729754;82;20953;-67
2022/04/02 00:36:18;;;;;;;7.87;5.58;;;;;;;6.29;100.00;97069.91;1687540;83;20995;-68
2022/04/02 00:38:51;;;;;;;8.60;5.28;;;;;;;6.29;100.00;97072.06;1707498;82;20934;-68
2022/04/02 00:41:19;;;;;;;6.50;4.62;;;;;;;6.30;100.00;97074.22;1718191;82;21985;-67
2022/04/02 00:43:59;;;;;;;7.87;5.55;;;;;;;6.32;100.00;97066.48;1726244;82;21703;-68
2022/04/02 00:46:31;;;;;;;8.25;5.42;;;;;;;6.33;100.00;97066.71;1734096;81;20990;-69
2022/04/02 00:49:11;;;;;;;6.03;4.62;;;;;;;6.29;100.00;97069.34;1702922;82;20953;-68
2022/04/02 00:51:41;;;;;;;7.25;5.33;;;;;;;6.24;100.00;97062.78;1725762;81;20986;-68
2022/04/02 00:54:15;;;;;;;6.87;5.53;;;;;;;6.18;100.00;97055.20;1725503;81;21281;-69
2022/04/02 00:56:44;;;;;;;5.95;4.90;;;;;;;6.13;100.00;97044.55;1724723;82;20934;-69
2022/04/02 00:59:18;;;;;;;9.18;5.80;;;;;;;6.06;100.00;97041.06;1735768;80;20957;-68
2022/04/02 01:01:49;;;;;;;7.17;5.65;;;;;;;6.01;100.00;97033.13;1733855;81;21517;-68
2022/04/02 01:04:16;;;;;;;7.35;5.30;;;;;;;5.96;100.00;97041.55;1726409;82;20850;-68
2022/04/02 01:06:51;;;;;;;6.80;5.20;;;;;;;5.95;100.00;97045.41;1737778;82;20894;-68
2022/04/02 01:09:18;;;;;;;7.28;5.45;;;;;;;5.93;100.00;97044.96;1703986;82;21489;-68
2022/04/02 01:11:54;;;;;;;8.08;5.85;;;;;;;5.95;100.00;97050.28;1737134;81;20901;-68
2022/04/02 01:14:24;;;;;;;9.20;6.10;;;;;;;5.98;100.00;97038.48;1703575;82;21026;-69
2022/04/02 01:16:58;;;;;;;6.80;5.45;;;;;;;6.01;100.00;97030.41;1703510;82;20957;-68
2022/04/02 01:19:29;;;;;;;7.12;4.92;;;;;;;6.05;100.00;97040.05;1724868;81;21416;-69
2022/04/02 01:22:06;;;;;;;8.13;5.30;;;;;;;6.03;100.00;97032.78;1669014;83;20873;-68
2022/04/02 01:24:52;;;;;;;6.08;4.60;;;;;;;5.93;100.00;97028.63;1699491;82;20976;-68
2022/04/02 01:27:20;;;;;;;6.80;5.40;;;;;;;5.86;100.00;97037.92;1690942;83;20909;-68
2022/04/02 01:29:49;;;;;;;8.03;5.12;;;;;;;5.82;100.00;97044.63;1662093;83;21504;-68
2022/04/02 01:32:16;;;;;;;7.25;5.55;;;;;;;5.82;100.00;97053.36;1712626;83;22031;-69
2022/04/02 01:34:55;;;;;;;7.30;5.28;;;;;;;5.74;100.00;97053.75;1677677;85;20932;-69
2022/04/02 01:37:22;;;;;;;5.97;5.22;;;;;;;5.72;100.00;97056.02;1669235;85;20983;-70
2022/04/02 01:39:58;;;;;;;6.87;5.40;;;;;;;5.73;100.00;97061.69;1670073;83;20920;-70
2022/04/02 01:42:33;;;;;;;7.05;5.55;;;;;;;5.73;100.00;97057.61;1697146;83;20901;-71
2022/04/02 01:45:03;;;;;;;;;;;;;;;5.77;100.00;97058.51;1698158;83;21978;-69
2022/04/02 01:47:34;;;;;;;7.35;5.58;;;;;;;5.79;100.00;97050.76;1692300;82;20155;-69
2022/04/02 01:50:05;;;;;;;7.12;5.67;;;;;;;5.78;100.00;97053.26;1719248;83;21057;-70
2022/04/02 01:52:35;;;;;;;6.60;4.67;;;;;;;5.76;100.00;97039.80;1676711;84;20986;-70
2022/04/02 01:55:08;;;;;;;7.20;4.78;;;;;;;5.73;100.00;97038.55;1673480;85;21463;-70
2022/04/02 01:57:41;;;;;;;5.80;4.50;;;;;;;5.72;100.00;97039.69;1676055;85;21255;-70
2022/04/02 02:00:17;;;;;;;8.40;5.55;;;;;;;5.66;100.00;97033.47;1675857;85;20976;-70
2022/04/02 02:02:47;;;;;;;5.15;4.15;;;;;;;5.66;100.00;97034.83;1675914;85;20944;-70
2022/04/02 02:05:18;;;;;;;5.92;4.20;;;;;;;5.67;100.00;97035.05;1675922;85;20948;-70
2022/04/02 02:07:52;;;;;;;6.83;4.60;;;;;;;5.61;100.00;97039.95;1675681;85;21441;-70
2022/04/02 02:10:23;;;;;;;8.63;5.83;;;;;;;5.61;100.00;97039.95;1674282;85;21091;-70
2022/04/02 02:13:06;;;;;;;7.03;4.70;;;;;;;5.59;100.00;97047.66;1675407;85;20940;-70
2022/04/02 02:15:40;;;;;;;5.87;4.42;;;;;;;5.61;100.00;97046.19;1674516;85;21488;-70
2022/04/02 02:18:11;;;;;;;6.55;5.20;;;;;;;5.61;100.00;97044.82;1654631;85;21416;-70
2022/04/02 02:20:47;;;;;;;6.35;5.08;;;;;;;5.60;100.00;97051.97;1676150;85;20971;-70
2022/04/02 02:23:17;;;;;;;6.37;4.65;;;;;;;5.59;100.00;97043.02;1655000;85;20892;-70
2022/04/02 02:25:51;;;;;;;5.80;4.72;;;;;;;5.61;100.00;97037.22;1674920;85;21456;-71
2022/04/02 02:28:29;;;;;;;7.03;4.97;;;;;;;5.60;100.00;97028.84;1676212;85;20956;-70
2022/04/02 02:31:00;;;;;;;7.45;3.92;;;;;;;5.60;100.00;97024.19;1676051;85;20881;-71
2022/04/02 02:36:02;;;;;;;5.87;4.15;;;;;;;5.53;100.00;97021.82;1631417;85;23173;-70
2022/04/02 02:38:37;;;;;;;7.55;4.97;;;;;;;5.52;100.00;97016.16;1653779;85;20924;-68
2022/04/02 02:41:10;;;;;;;7.28;3.83;;;;;;;5.49;100.00;97015.48;1675609;85;20949;-68
2022/04/02 02:43:48;;;;;;;7.42;4.70;;;;;;;5.43;100.00;97012.77;1676017;85;20992;-68
2022/04/02 02:46:20;;;;;;;8.60;4.72;;;;;;;5.35;100.00;97018.56;1675078;85;20960;-67
2022/04/02 02:48:53;;;;;;;6.65;5.15;;;;;;;5.30;100.00;97011.43;1676091;85;21479;-70
2022/04/02 02:51:27;;;;;;;8.53;4.75;;;;;;;5.23;100.00;97011.21;1675930;85;20936;-70
2022/04/02 02:53:58;;;;;;;8.40;5.33;;;;;;;5.20;100.00;97010.53;1676104;85;20944;-71
2022/04/02 02:56:26;;;;;;;9.18;5.03;;;;;;;5.19;100.00;97005.47;1675913;85;20916;-71
2022/04/02 02:58:59;;;;;;;8.05;5.42;;;;;;;5.19;100.00;97005.47;1654955;85;20904;-71
2022/04/02 03:01:33;;;;;;;8.63;5.70;;;;;;;5.18;100.00;96995.72;1686983;83;21179;-69
2022/04/02 03:04:05;;;;;;;6.83;4.67;;;;;;;5.14;100.00;96991.53;1687903;84;20952;-69
2022/04/02 03:06:37;;;;;;;9.45;5.62;;;;;;;5.14;100.00;96982.02;1662975;84;20948;-70
2022/04/02 03:09:09;;;;;;;9.88;5.70;;;;;;;5.17;100.00;96973.17;1678864;85;21480;-70
2022/04/02 03:11:38;;;;;;;8.08;5.83;;;;;;;5.20;100.00;96969.73;1680260;84;20935;-69
2022/04/02 03:14:13;;;;;;;8.25;5.50;;;;;;;5.17;100.00;96973.17;1682186;84;21254;-69
2022/04/02 03:16:46;;;;;;;15.03;5.97;;;;;;;5.12;100.00;96980.77;1680439;84;20920;-69
2022/04/02 03:19:24;;;;;;;8.28;5.78;;;;;;;5.09;100.00;96993.13;1666002;84;21451;-68
2022/04/02 03:21:57;;;;;;;9.35;6.03;;;;;;;5.08;100.00;96983.38;1683628;84;21423;-69
2022/04/02 03:24:29;;;;;;;13.70;6.22;;;;;;;5.12;100.00;96982.13;1690198;83;20892;-70
2022/04/02 03:26:59;;;;;;;13.10;6.40;;;;;;;5.15;100.00;97000.48;1702859;84;21180;-70
2022/04/02 03:29:35;;;;;;;15.32;6.47;;;;;;;5.14;100.00;96983.37;1701962;83;20947;-70
2022/04/02 05:39:45;;;;;;;24.15;8.28;;;;;;;4.58;100.00;96974.24;1805174;78;25845;-68
2022/04/02 05:42:12;;;;;;;27.90;8.45;;;;;;;4.53;100.00;96971.19;1756138;80;21493;-68
2022/04/02 05:44:39;;;;;;;21.30;8.93;;;;;;;4.49;100.00;96982.50;1756300;80;21152;-68
2022/04/02 05:47:07;;;;;;;27.07;8.45;;;;;;;4.49;100.00;96977.06;1762501;80;20841;-68
2022/04/02 05:49:34;;;;;;;27.65;10.08;;;;;;;4.54;100.00;96975.48;1758046;80;21013;-68
2022/04/02 05:52:04;;;;;;;25.75;9.48;;;;;;;4.58;100.00;96980.47;1769496;80;20982;-69
2022/04/02 05:54:33;;;;;;;25.30;9.48;;;;;;;4.64;100.00;96975.58;1771906;80;20900;-68
2022/04/02 05:57:00;;;;;;;24.27;9.55;;;;;;;4.69;100.00;96969.13;1771703;80;21855;-69
2022/04/02 05:59:28;;;;;;;23.80;9.33;;;;;;;4.76;100.00;96966.63;1758030;80;21486;-69
2022/04/02 06:01:55;;;;;;;22.50;9.60;;;;;;;4.81;100.00;96966.41;1767554;80;20877;-69
2022/04/02 06:04:23;;;;;;;28.75;10.63;;;;;;;4.86;100.00;96957.45;1774068;80;21458;-68
2022/04/02 06:06:50;;;;;;;19.92;8.68;;;;;;;4.86;100.00;96957.45;1758805;80;20912;-67
2022/04/02 06:09:19;;;;;;;23.02;8.33;;;;;;;4.91;100.00;96961.30;1762085;80;20912;-69
2022/04/02 06:11:46;;;;;;;27.55;8.38;;;;;;;4.94;100.00;96969.34;1775210;80;21399;-69
2022/04/02 06:14:13;;;;;;;23.67;7.50;;;;;;;4.93;100.00;96960.96;1766011;80;20888;-68
2022/04/02 06:16:41;;;;;;;29.45;7.85;;;;;;;4.88;100.00;96959.83;1761742;80;21085;-69
2022/04/02 06:19:07;;;;;;;24.37;7.95;;;;;;;4.87;100.00;96963.69;1760744;80;21402;-74
2022/04/02 06:21:35;;;;;;;25.57;8.88;;;;;;;4.88;100.00;96961.19;1761798;80;21118;-79
2022/04/02 06:24:06;;;;;;;26.33;7.83;;;;;;;4.89;100.00;96969.01;1758554;80;21380;-70
2022/04/02 06:26:32;;;;;;;28.05;10.53;;;;;;;4.90;100.00;96969.80;1763429;80;20927;-73
2022/04/02 06:29:00;;;;;;;29.25;10.95;;;;;;;4.89;100.00;96970.37;1768004;80;20955;-73
2022/04/02 06:31:26;;;;;;;23.50;8.35;;;;;;;4.86;100.00;96975.13;1755508;80;21442;-73
2022/04/02 06:33:53;;;;;;;29.37;11.03;;;;;;;4.87;100.00;96986.80;1766763;80;21098;-72
2022/04/02 06:36:21;;;;;;;27.98;9.65;;;;;;;4.81;100.00;96985.44;1778303;80;21002;-72
2022/04/02 06:38:49;;;;;;;26.48;8.88;;;;;;;4.70;100.00;96972.07;1734116;80;21010;-71
2022/04/02 06:41:16;;;;;;;26.30;8.18;;;;;;;4.63;100.00;96973.42;1738295;81;20917;-69
2022/04/02 06:43:43;;;;;;;23.15;7.65;;;;;;;4.65;100.00;96978.52;1718654;81;21049;-68
2022/04/02 06:46:12;;;;;;;26.55;8.18;;;;;;;4.61;100.00;96982.52;1728942;81;21141;-68
2022/04/02 06:48:39;;;;;;;17.48;6.70;;;;;;;4.58;100.00;96977.75;1727167;81;21006;-69
2022/04/02 06:51:07;;;;;;;16.57;6.22;;;;;;;4.58;100.00;96977.75;1693014;82;20968;-69
2022/04/02 06:53:35;;;;;;;21.82;7.50;;;;;;;4.69;100.00;96982.14;1734257;81;20943;-69
2022/04/02 06:56:03;;;;;;;24.23;7.75;;;;;;;4.79;100.00;96982.27;1721679;81;20974;-68
2022/04/02 06:58:36;;;;;;;15.63;6.80;;;;;;;4.82;100.00;96981.58;1733682;81;21119;-69
2022/04/02 07:01:03;;;;;;;27.13;8.73;;;;;;;4.88;100.00;96982.37;1712220;82;20994;-69
2022/04/02 07:03:30;;;;;;;23.85;8.70;;;;;;;4.96;100.00;96984.75;1727343;82;21429;-68
2022/04/02 07:05:57;;;;;;;20.77;6.90;;;;;;;5.00;100.00;96990.30;1727278;82;21460;-69
2022/04/02 07:08:25;;;;;;;19.32;6.55;;;;;;;4.96;100.00;96988.27;1720641;81;20882;-68
2022/04/02 07:10:52;;;;;;;16.93;7.28;;;;;;;4.90;100.00;96984.75;1725743;81;21582;-68
2022/04/02 07:13:19;;;;;;;15.65;7.10;;;;;;;4.89;100.00;96985.89;1717057;82;20949;-68
2022/04/02 07:15:49;;;;;;;18.20;6.75;;;;;;;4.92;100.00;96986.00;1713458;81;20970;-69
2022/04/02 07:18:16;;;;;;;10.68;5.33;;;;;;;4.98;100.00;96975.13;1729577;82;20964;-67
2022/04/02 07:20:44;;;;;;;11.22;5.35;;;;;;;5.07;100.00;96972.28;1745009;82;20941;-67
2022/04/02 07:23:12;;;;;;;10.60;4.90;;;;;;;5.08;100.00;96973.86;1717734;81;21139;-67
2022/04/02 07:25:41;;;;;;;9.40;4.95;;;;;;;5.07;100.00;96970.92;1710446;82;20911;-67
2022/04/02 07:28:09;;;;;;;8.43;4.47;;;;;;;5.06;100.00;96972.63;1712331;82;21456;-70
2022/04/02 07:30:37;;;;;;;8.43;4.75;;;;;;;5.03;100.00;96970.59;1735702;81;21104;-68
2022/04/02 07:33:05;;;;;;;11.90;4.90;;;;;;;4.88;100.00;96978.30;1721795;81;21528;-68
2022/04/02 07:35:43;;;;;;;11.10;4.85;;;;;;;4.88;100.00;96978.30;1729454;82;21155;-68
2022/04/02 07:38:14;;;;;;;10.00;5.22;;;;;;;4.90;100.00;96982.03;1724300;82;20933;-69
2022/04/02 07:41:14;;;;;;;8.90;5.35;;;;;;;4.94;100.00;96985.66;1724123;82;20911;-68
2022/04/02 07:44:01;;;;;;;7.08;4.65;;;;;;;5.02;100.00;96983.95;1738726;81;20997;-68
2022/04/02 07:46:30;;;;;;;7.72;5.10;;;;;;;5.13;100.00;96989.95;1722528;81;20906;-68
2022/04/02 07:48:58;;;;;;;8.43;4.00;;;;;;;5.08;100.00;96994.26;1704675;82;21137;-69
2022/04/02 07:51:29;;;;;;;11.33;5.53;;;;;;;5.06;100.00;96996.52;1721532;81;21013;-69
2022/04/02 07:54:01;;;;;;;15.35;5.95;;;;;;;5.10;100.00;96996.07;1720712;82;20862;-69
2022/04/02 07:56:37;;;;;;;14.07;5.37;;;;;;;5.13;100.00;96994.59;1733910;81;20942;-68
2022/04/02 07:59:18;;;;;;;10.98;4.78;;;;;;;5.16;100.00;96999.35;1736909;82;20990;-67
2022/04/02 08:01:45;;;;;;;8.55;4.33;;;;;;;5.22;100.00;97000.11;1710405;81;20991;-68
2022/04/02 08:04:12;;;;;;;9.25;4.60;;;;;;;5.22;100.00;97010.98;1722454;81;21437;-70
2022/04/02 08:06:39;;;;;;;13.58;6.47;;;;;;;5.20;100.00;97013.25;1712334;81;20966;-69
2022/04/02 08:09:08;;;;;;;11.55;5.65;;;;;;;5.15;100.00;97012.16;1704812;83;21061;-67
2022/04/02 08:11:38;;;;;;;13.45;6.20;;;;;;;5.18;100.00;97019.63;1693614;83;21442;-67
2022/04/02 08:14:05;;;;;;;12.37;5.90;;;;;;;5.21;100.00;97024.93;1691110;83;21227;-65
2022/04/02 08:16:42;;;;;;;16.70;7.67;;;;;;;5.17;100.00;97027.56;1691699;83;21028;-69
2022/04/02 08:19:03;;;;;;;14.40;5.97;;;;;;;5.10;100.00;97025.98;1687552;83;20978;-71
2022/04/02 08:21:30;;;;;;;13.90;5.72;;;;;;;5.03;100.00;97028.48;1684552;83;21902;-68
2022/04/02 08:23:58;;;;;;;13.68;6.05;;;;;;;4.99;100.00;97028.93;1682491;83;21009;-68
2022/04/02 08:26:47;;;;;;;14.38;6.00;;;;;;;4.98;100.00;97034.14;1700542;83;21255;-73
2022/04/02 08:29:36;;;;;;;15.40;7.45;;;;;;;5.01;100.00;97036.75;1696962;83;21013;-73
2022/04/02 08:32:15;;;;;;;14.10;5.80;;;;;;;4.95;100.00;97037.54;1685477;83;20951;-67
2022/04/02 08:35:07;;;;;;;13.62;5.33;;;;;;;4.97;100.00;97033.35;1693355;83;20984;-73
2022/04/02 08:37:52;;;;;;;12.13;5.33;;;;;;;5.04;100.00;97040.94;1713173;83;21028;-73
2022/04/02 08:40:28;;;;;;;6.92;3.47;;;;;;;4.99;100.00;97045.24;1670277;83;20906;-74
2022/04/02 08:43:33;;;;;;;5.30;2.62;;;;;;;4.91;100.00;97046.14;1674222;84;20893;-73
2022/04/02 08:46:30;;;;;;;6.65;2.40;;;;;;;4.86;100.00;97044.45;1677884;83;20996;-73
2022/04/02 08:49:11;;;;;;;5.92;3.30;;;;;;;4.83;100.00;97044.33;1706907;83;20936;-73
2022/04/02 08:51:46;;;;;;;9.45;4.30;;;;;;;4.84;100.00;97043.20;1679832;83;21474;-71
2022/04/02 08:54:25;;;;;;;6.58;3.10;;;;;;;4.84;100.00;97041.27;1693960;81;21285;-72
2022/04/02 08:57:08;;;;;;;4.60;2.85;;;;;;;4.92;100.00;97049.88;1712762;82;21101;-72
2022/04/02 08:59:40;;;;;;;9.03;3.55;;;;;;;4.92;100.00;97049.88;1672445;83;21488;-72
2022/04/02 09:02:50;;;;;;;7.55;4.55;;;;;;;4.83;100.00;97045.69;1705048;83;20957;-72
2022/04/02 09:06:02;;;;;;;9.55;4.53;;;;;;;4.76;100.00;97053.04;1698129;82;20989;-72
2022/04/02 09:09:20;;;;;;;9.83;4.83;;;;;;;4.69;100.00;97049.30;1705667;82;21578;-77
2022/04/02 09:12:19;;;;;;;9.50;5.12;;;;;;;4.77;100.00;97061.42;1713478;80;21031;-77
2022/04/02 09:15:08;;;;;;;8.73;4.42;;;;;;;4.77;100.00;97061.42;1711581;81;21013;-75
2022/04/02 09:17:50;;;;;;;8.40;3.55;;;;;;;4.80;100.00;97069.47;1702945;83;21486;-73
2022/04/02 09:20:57;;;;;;;6.37;3.10;;;;;;;4.80;100.00;97069.47;1735108;81;20952;-74
2022/04/02 09:23:47;;;;;;;8.93;3.80;;;;;;;4.80;100.00;97069.47;1728672;81;21012;-72
2022/04/02 09:26:43;;;;;;;9.75;4.40;;;;;;;4.77;100.00;97076.38;1722278;81;21008;-76
2022/04/02 09:29:17;;;;;;;9.68;3.55;;;;;;;4.73;100.00;97072.73;1723210;82;20997;-73
2022/04/02 09:32:08;;;;;;;6.92;3.70;;;;;;;4.64;100.00;97070.12;1727598;81;21511;-86
2022/04/02 09:35:03;;;;;;;13.18;5.58;;;;;;;4.64;100.00;97070.12;1712386;81;20968;-73
2022/04/02 09:38:10;;;;;;;12.18;4.12;;;;;;;4.67;100.00;97072.73;1728256;81;21280;-72
2022/04/02 09:40:48;;;;;;;7.05;3.15;;;;;;;4.74;100.00;97085.77;1737058;81;20946;-75
2022/04/02 09:43:27;;;;;;;4.67;2.60;;;;;;;4.74;100.00;97085.77;1721961;81;20981;-77
2022/04/02 09:46:33;;;;;;;5.65;3.10;;;;;;;4.76;100.00;97088.94;1713690;81;21112;-72
2022/04/02 09:49:10;;;;;;;5.33;2.67;;;;;;;4.78;100.00;97085.31;1745184;81;21015;-72
2022/04/02 09:51:41;;;;;;;6.95;3.12;;;;;;;4.79;100.00;97099.14;1718800;81;21393;-71
2022/04/02 09:54:14;;;;;;;7.37;3.00;;;;;;;4.78;100.00;97095.63;1690188;83;21004;-72
2022/04/02 09:56:41;;;;;;;7.90;2.37;;;;;;;4.79;100.00;97089.63;1707052;81;21496;-71
2022/04/02 09:59:26;;;;;;;6.33;2.15;;;;;;;4.75;100.00;97096.86;1690085;83;21019;-72
2022/04/02 10:02:05;;;;;;;5.37;2.27;;;;;;;4.72;100.00;97109.77;1677583;83;21517;-71
2022/04/02 10:04:45;;;;;;;4.20;2.15;;;;;;;4.70;100.00;97107.95;1665028;85;21343;-72
2022/04/02 10:07:30;;;;;;;5.62;2.65;;;;;;;4.70;100.00;97110.67;1666798;83;21056;-73
2022/04/02 10:09:58;;;;;;;5.35;2.37;;;;;;;4.72;100.00;97117.36;1655620;84;21092;-73
2022/04/02 10:12:29;;;;;;;5.10;2.52;;;;;;;4.76;100.00;97110.68;1668768;85;21018;-79
2022/04/02 10:14:59;;;;;;;5.53;2.67;;;;;;;4.80;100.00;97118.39;1692578;83;21113;-71
2022/04/02 10:17:28;;;;;;;6.87;3.10;;;;;;;4.86;100.00;97119.77;1697719;83;21171;-71
2022/04/02 10:19:59;;;;;;;5.60;2.75;;;;;;;4.86;100.00;97128.72;1724507;81;21017;-70
2022/04/02 10:22:45;;;;;;;7.00;2.45;;;;;;;4.81;100.00;97133.58;1719853;82;20898;-71
2022/04/02 10:25:14;;;;;;;5.03;3.22;;;;;;;4.70;100.00;97135.13;1727528;82;20947;-72
2022/04/02 10:27:43;;;;;;;7.85;3.77;;;;;;;4.58;100.00;97138.62;1708025;81;21025;-70
2022/04/02 10:30:15;;;;;;;9.00;4.35;;;;;;;4.54;100.00;97137.71;1715580;81;21163;-71
2022/04/02 10:35:47;;;;;;;6.35;3.77;;;;;;;4.48;100.00;97143.91;1735590;81;21056;-71
2022/04/02 10:38:36;;;;;;;9.73;4.17;;;;;;;4.46;100.00;97139.38;1740550;81;21004;-72
2022/04/02 10:41:14;;;;;;;7.08;4.22;;;;;;;4.44;100.00;97138.92;1709568;81;21001;-75
2022/04/02 10:44:06;;;;;;;7.05;3.85;;;;;;;4.45;100.00;97143.79;1716624;81;21291;-72
2022/04/02 10:46:33;;;;;;;7.45;3.60;;;;;;;4.52;100.00;97142.69;1714037;82;21249;-69
2022/04/02 10:49:05;;;;;;;6.00;3.98;;;;;;;4.52;100.00;97142.69;1710478;82;21038;-75
2022/04/02 10:51:35;;;;;;;8.30;4.25;;;;;;;4.64;100.00;97143.49;1724590;82;21134;-74
2022/04/02 10:54:07;;;;;;;11.03;4.85;;;;;;;4.75;100.00;97146.58;1722213;81;21032;-84
2022/04/02 10:56:42;;;;;;;10.08;5.28;;;;;;;4.76;100.00;97141.94;1716706;82;21047;-81
2022/04/02 10:59:10;;;;;;;4.95;2.50;;;;;;;4.77;100.00;97143.53;1695291;83;20969;-74
2022/04/02 11:01:41;;;;;;;3.62;2.30;;;;;;;4.78;100.00;97143.76;1668302;85;20976;-68
2022/04/02 11:04:33;;;;;;;3.85;2.72;;;;;;;4.80;100.00;97144.22;1661434;85;21068;-73
2022/04/02 11:07:00;;;;;;;6.45;3.62;;;;;;;4.81;100.00;97141.16;1674036;85;21078;-72
2022/04/02 11:09:33;;;;;;;5.00;2.85;;;;;;;4.88;100.00;97141.97;1658384;84;21271;-71
2022/04/02 11:12:11;;;;;;;5.15;3.02;;;;;;;4.90;100.00;97145.94;1666696;85;21011;-73
2022/04/02 11:14:42;;;;;;;6.90;3.15;;;;;;;4.85;100.00;97135.84;1674102;84;20928;-71
2022/04/02 11:17:11;;;;;;;6.20;2.72;;;;;;;4.82;100.00;97140.03;1664263;85;20932;-73
2022/04/02 11:19:54;;;;;;;6.92;2.90;;;;;;;4.80;100.00;97141.50;1672585;84;20988;-73
2022/04/02 11:22:48;;;;;;;4.65;2.95;;;;;;;4.77;100.00;97136.17;1652028;85;21195;-73
2022/04/02 11:25:36;;;;;;;4.65;2.67;;;;;;;4.84;100.00;97146.48;1657227;85;20950;-72
2022/04/02 11:28:23;;;;;;;5.28;2.70;;;;;;;4.88;100.00;97153.64;1658488;85;20968;-72
2022/04/02 11:31:05;;;;;;;4.78;2.37;;;;;;;4.84;100.00;97148.64;1637894;85;21524;-72
2022/04/02 11:33:39;;;;;;;5.22;2.52;;;;;;;4.84;100.00;97148.64;1662331;84;21433;-70
2022/04/02 11:36:09;;;;;;;4.95;2.65;;;;;;;4.79;100.00;97150.78;1681946;82;21534;-71
2022/04/02 11:39:02;;;;;;;5.30;2.35;;;;;;;4.73;100.00;97161.64;1690797;82;21496;-71
2022/04/02 11:41:36;;;;;;;4.40;2.67;;;;;;;4.73;100.00;97161.64;1728764;82;20934;-72
2022/04/02 11:44:09;;;;;;;7.97;2.42;;;;;;;4.63;100.00;97158.77;1722855;82;20939;-72
2022/04/02 11:47:02;;;;;;;3.33;2.30;;;;;;;4.61;100.00;97165.93;1721785;81;20953;-71
2022/04/02 11:49:40;;;;;;;5.05;3.17;;;;;;;4.62;100.00;97155.26;1727595;82;21270;-71
2022/04/02 11:52:14;;;;;;;5.08;2.60;;;;;;;4.76;100.00;97163.69;1716628;82;21083;-74
2022/04/02 11:54:52;;;;;;;5.33;2.45;;;;;;;4.79;100.00;97168.45;1733635;81;21545;-80
2022/04/02 11:57:20;;;;;;;5.28;2.98;;;;;;;4.79;100.00;97168.45;1718432;81;21046;-70
2022/04/02 11:59:54;;;;;;;4.28;2.40;;;;;;;4.81;100.00;97162.11;1724253;82;21542;-69
2022/04/02 12:02:39;;;;;;;6.58;3.85;;;;;;;4.75;100.00;97173.77;1730089;82;21225;-69
2022/04/02 12:05:10;;;;;;;5.92;2.90;;;;;;;4.75;100.00;97173.77;1719372;80;20949;-72
2022/04/02 12:07:47;;;;;;;6.25;3.37;;;;;;;4.71;100.00;97172.84;1743877;81;20998;-77
2022/04/02 12:10:17;;;;;;;4.83;2.77;;;;;;;4.64;100.00;97151.64;1737951;80;20955;-80
2022/04/02 12:12:50;;;;;;;5.33;2.65;;;;;;;4.60;100.00;97174.41;1731691;81;20944;-69
2022/04/02 12:15:17;;;;;;;4.90;2.85;;;;;;;4.55;100.00;97179.49;1726822;82;25096;-71
2022/04/02 12:17:54;;;;;;;6.08;3.42;;;;;;;4.56;100.00;97170.78;1721493;82;20983;-72
2022/04/02 12:20:38;;;;;;;4.60;2.87;;;;;;;4.60;100.00;97175.77;1720299;82;20944;-73
2022/04/02 12:23:16;;;;;;;3.85;2.10;;;;;;;4.60;100.00;97175.77;1724988;81;21529;-73
2022/04/02 12:25:56;;;;;;;3.40;2.65;;;;;;;4.59;100.00;97184.48;1718225;81;21645;-74
2022/04/02 12:28:24;;;;;;;3.58;2.35;;;;;;;4.55;100.00;97184.12;1719674;81;21280;-78
2022/04/02 12:30:53;;;;;;;4.72;2.40;;;;;;;4.57;100.00;97178.59;1732917;81;21006;-71
2022/04/02 12:33:24;;;;;;;3.17;2.17;;;;;;;4.59;100.00;97194.56;1723915;81;21043;-72
2022/04/02 12:36:00;;;;;;;2.12;1.80;;;;;;;4.60;100.00;97188.00;1739158;81;21303;-71
2022/04/02 12:38:30;;;;;;;3.70;2.47;;;;;;;4.62;100.00;97194.66;1732866;81;20975;-77
2022/04/02 12:40:58;;;;;;;4.83;2.50;;;;;;;4.62;100.00;97195.26;1707180;82;21130;-74
2022/04/02 12:43:30;;;;;;;3.72;2.00;;;;;;;4.62;100.00;97195.26;1744002;81;21438;-69
2022/04/02 12:46:01;;;;;;;3.20;2.00;;;;;;;4.63;100.00;97200.89;1739635;80;21022;-74
2022/04/02 12:48:44;;;;;;;4.92;1.87;;;;;;;4.62;100.00;97202.81;1735851;82;20975;-73
2022/04/02 12:51:16;;;;;;;2.45;1.37;;;;;;;4.59;100.00;97211.66;1714696;82;21115;-76
2022/04/02 12:53:46;;;;;;;1.90;1.35;;;;;;;4.57;100.00;97211.20;1735316;81;21134;-69
2022/04/02 12:56:26;;;;;;;2.72;1.20;;;;;;;4.57;100.00;97209.84;1743973;81;20993;-69
2022/04/02 12:58:54;;;;;;;2.15;1.30;;;;;;;4.58;100.00;97208.72;1698999;82;21102;-68
2022/04/02 13:01:32;;;;;;;2.33;1.55;;;;;;;4.60;100.00;97213.81;1682787;84;22366;-68
2022/04/02 13:04:08;;;;;;;3.87;1.45;;;;;;;4.59;100.00;97191.28;1723178;82;20885;-66
2022/04/02 13:06:46;;;;;;;2.98;1.25;;;;;;;4.59;100.00;97191.28;1704807;82;21283;-66
2022/04/02 13:09:19;;;;;;;1.27;1.10;;;;;;;4.60;100.00;97215.97;1725458;81;20902;-68
2022/04/02 14:23:48;;;;;;;3.42;1.52;;;;;;;4.16;100.00;97304.32;1808287;78;26300;-72
2022/04/02 14:26:46;;;;;;;4.08;2.27;;;;;;;4.12;100.00;97309.38;1763586;79;20975;-71
2022/04/02 14:29:37;;;;;;;7.10;3.80;;;;;;;4.11;100.00;97310.50;1755632;80;21229;-73
2022/04/02 14:32:55;;;;;;;3.20;1.67;;;;;;;4.12;100.00;97312.09;1747357;80;21313;-73
2022/04/02 14:36:05;;;;;;;3.90;1.85;;;;;;;4.09;100.00;97316.26;1763491;80;20991;-74
2022/04/02 14:39:04;;;;;;;4.37;2.22;;;;;;;4.08;100.00;97320.66;1759175;80;21002;-76
2022/04/02 14:42:11;;;;;;;6.45;3.22;;;;;;;4.03;100.00;97314.09;1747341;80;20876;-71
2022/04/02 14:45:22;;;;;;;13.20;6.25;;;;;;;4.08;100.00;97323.38;1769418;80;20963;-72
2022/04/02 14:48:16;;;;;;;18.15;9.03;;;;;;;4.08;100.00;97323.38;1768049;80;20905;-73
2022/04/02 14:51:13;;;;;;;9.80;5.40;;;;;;;4.08;100.00;97328.24;1753214;81;21466;-69
2022/04/02 14:54:06;;;;;;;2.95;1.75;;;;;;;4.08;100.00;97328.24;1763999;80;20987;-69
2022/04/02 14:57:16;;;;;;;3.58;2.22;;;;;;;4.07;100.00;97335.36;1756918;80;21697;-68
2022/04/02 15:00:03;;;;;;;2.77;1.87;;;;;;;4.05;100.00;97344.39;1752392;80;21227;-74
2022/04/02 15:03:02;;;;;;;3.35;1.90;;;;;;;4.01;100.00;97336.69;1766518;80;21093;-72
2022/04/02 15:06:06;;;;;;;2.85;1.80;;;;;;;4.01;100.00;97346.20;1750020;80;21589;-69
2022/04/02 15:09:15;;;;;;;3.98;2.20;;;;;;;4.01;100.00;97342.92;1744915;80;22150;-72
2022/04/02 15:12:00;;;;;;;4.55;1.62;;;;;;;4.01;100.00;97357.05;1707123;83;21043;-73
2022/04/02 15:14:28;;;;;;;4.72;2.08;;;;;;;3.98;100.00;97354.43;1756259;81;21533;-67
2022/04/02 15:17:02;;;;;;;4.22;2.67;;;;;;;3.97;100.00;97359.06;1731866;80;21008;-68
2022/04/02 15:19:31;;;;;;;7.83;3.30;;;;;;;3.96;100.00;97359.39;1712094;81;21004;-73
2022/04/02 15:22:10;;;;;;;11.03;3.37;;;;;;;3.96;100.00;97361.55;1727235;80;20973;-71
2022/04/02 15:24:40;;;;;;;8.23;3.42;;;;;;;3.94;100.00;97357.00;1718796;81;21114;-69
2022/04/02 15:27:08;;;;;;;3.60;1.70;;;;;;;3.90;100.00;97366.91;1726814;82;21229;-77
2022/04/02 15:29:38;;;;;;;6.95;3.40;;;;;;;3.86;100.00;97374.11;1723895;82;21034;-70
2022/04/02 15:32:10;;;;;;;6.37;2.83;;;;;;;3.82;100.00;97378.59;1726998;81;21007;-69
2022/04/02 15:34:53;;;;;;;4.12;2.25;;;;;;;3.80;100.00;97379.47;1728262;81;20983;-68
2022/04/02 15:37:30;;;;;;;3.50;2.20;;;;;;;3.79;100.00;97390.09;1734075;81;21063;-69